WETTERDATEN

GESTERN
Time Temp. Taup. r.Fe. Windrich Windstärke Windböe Druck 1h Prec. 24h Prec.
00:08 6.9 4.6 85 77 1.1 2.8 1005.3 0.0000 0.0000
00:17 6.8 4.5 85 69 1.1 2.2 1005.3 0.0000 0.0000
00:28 6.7 4.4 85 79 0.8 1.9 1005.3 0.0000 0.0000
00:38 6.6 4.3 85 90 0.8 1.9 1005.2 0.0000 0.0000
00:48 6.5 4.2 85 70 0.8 1.9 1005.1 0.0000 0.0000
00:58 6.4 4.1 85 69 1.1 1.9 1005.2 0.0000 0.0000
01:08 6.3 4 85 70 1.1 1.9 1005.1 0.0000 0.0000
01:18 6.3 4 85 90 0.8 2.5 1005.2 0.0000 0.0000
01:28 6.1 3.9 86 80 1.1 1.9 1005.2 0.0000 0.0000
01:38 6.1 3.9 86 79 0.8 2.5 1005.2 0.0000 0.0000
01:49 6 3.8 86 72 1.1 2.2 1005.1 0.0000 0.0000
01:58 6 3.8 86 69 0.8 1.7 1005 0.0000 0.0000
02:08 5.9 3.7 86 58 0.8 1.4 1004.9 0.0000 0.0000
02:19 5.6 3.4 86 57 0.8 1.4 1004.8 0.0000 0.0000
02:29 5.4 3.2 86 55 0.8 1.4 1004.8 0.0000 0.0000
02:39 5.3 3.2 86 53 0.8 1.4 1004.7 0.0000 0.0000
02:49 5.2 3.1 86 57 0.8 1.4 1004.5 0.0000 0.0000
02:59 5.1 3 86 54 0.8 1.7 1004.5 0.0000 0.0000
03:09 5 2.9 86 48 1.1 1.9 1004.4 0.0000 0.0000
03:19 4.8 2.7 86 47 0.6 1.1 1004.4 0.0000 0.0000
03:30 4.7 2.6 86 90 0.3 0.8 1004.5 0.0000 0.0000
03:39 4.4 2.3 86 90 0.3 0.8 1004.4 0.0000 0.0000
03:49 4.1 2 86 45 0.3 0.6 1004.4 0.0000 0.0000
03:59 3.8 1.7 86 55 0.3 0.8 1004.3 0.0000 0.0000
04:10 3.5 1.5 87 54 0.8 1.1 1004.4 0.0000 0.0000
04:20 3.2 1.2 87 55 0.6 1.4 1004.3 0.0000 0.0000
04:29 2.9 1 87 30 0.6 0.8 1004.3 0.0000 0.0000
04:40 2.8 0.9 87 45 0.3 0.6 1004.4 0.0000 0.0000
04:50 2.5 0.6 87 0 0.3 0.8 1004.5 0.0000 0.0000
05:00 2.3 0.4 87 17 0.6 0.8 1004.5 0.0000 0.0000
05:10 2.3 0.4 87 18 0.6 1.1 1004.5 0.0000 0.0000
05:21 2.3 0.4 87 45 0.8 1.4 1004.5 0.0000 0.0000
05:30 2.1 0.2 87 37 0.6 0.8 1004.4 0.0000 0.0000
05:40 1.8 -0.1 87 45 0.3 0.6 1004.3 0.0000 0.0000
05:51 1.7 -0.2 87 26 0.3 0.6 1004.3 0.0000 0.0000
06:01 1.8 0 88 34 0.3 0.8 1004.4 0.0000 0.0000
06:11 1.7 -0.1 88 36 0.8 1.4 1004.3 0.0000 0.0000
06:20 1.8 0 88 45 0.8 1.4 1004.2 0.0000 0.0000
06:31 1.8 0 88 48 0.3 0.8 1004.3 0.0000 0.0000
06:41 1.6 -0.1 88 0 0.6 1004.4 0.0000 0.0000
06:51 1.3 -0.4 88 26 0.3 0.6 1004.4 0.0000 0.0000
07:01 1.1 -0.6 88 27 0.3 0.8 1004.4 0.0000 0.0000
07:11 1.1 -0.6 88 33 0.8 1.4 1004.3 0.0000 0.0000
07:21 1.2 -0.5 88 42 0.6 1.1 1004.3 0.0000 0.0000
07:31 1.3 -0.4 88 40 0.6 1.1 1004.2 0.0000 0.0000
07:42 1.5 -0.2 88 45 0.3 1.1 1004.2 0.0000 0.0000
07:52 1.8 0.2 89 0 0.6 1004.2 0.0000 0.0000
08:01 2.2 0.6 89 322 0.3 0.8 1004.3 0.0000 0.0000
08:12 2.8 1.2 89 48 0.3 0.8 1004.3 0.0000 0.0000
08:22 3 1.4 89 36 0.8 1.7 1004.2 0.0000 0.0000
08:32 3.8 2.2 89 35 0.8 1.4 1004.2 0.0000 0.0000
08:42 5 3.5 90 35 0.8 1.7 1004.2 0.0000 0.0000
08:52 5.9 4.4 90 41 0.8 1.9 1004.2 0.0000 0.0000
09:02 6.9 5.4 90 56 0.6 1.4 1004.3 0.0000 0.0000
09:12 7.9 6.4 90 53 0.3 0.8 1004.2 0.0000 0.0000
09:22 8.8 7.3 90 33 0.3 1.1 1004.4 0.0000 0.0000
09:33 9.8 8.1 89 113 0.6 1.9 1004.4 0.0000 0.0000
09:42 10.5 8.8 89 106 1.1 2.8 1004.4 0.0000 0.0000
09:52 11.1 9.4 89 90 1.1 3.3 1004.4 0.0000 0.0000
10:03 11.3 9.4 88 116 1.9 3.3 1004.4 0.0000 0.0000
10:13 11.7 9.6 87 108 1.1 2.5 1004.4 0.0000 0.0000
10:23 11.9 9.6 86 80 1.9 3.6 1004.4 0.0000 0.0000
10:33 12.2 9.9 86 98 1.1 2.5 1004.4 0.0000 0.0000
10:43 12.7 10.2 85 117 1.1 2.5 1004.4 0.0000 0.0000
10:53 12.8 10.2 84 111 1.4 3.3 1004.4 0.0000 0.0000
11:03 12.7 9.9 83 80 1.4 3.3 1004.3 0.0000 0.0000
11:14 12.7 9.7 82 68 1.4 3.3 1004.3 0.0000 0.0000
11:24 13.4 10.2 81 66 1.7 3.3 1004.1 0.0000 0.0000
11:33 14 10.6 80 128 1.7 3.6 1004.1 0.0000 0.0000
11:43 14.2 10.2 77 61 2.2 5 1003.9 0.0000 0.0000
11:54 13.9 9.3 74 65 1.4 4.2 1003.9 0.0000 0.0000
12:04 13.5 8.8 73 75 1.4 3.6 1003.9 0.0000 0.0000
12:14 13.6 8.9 73 97 1.7 3.1 1004.1 0.0000 0.0000
12:24 13.5 8.6 72 118 1.9 4.2 1004 0.0000 0.0000
12:34 13.3 8.4 72 90 1.7 3.9 1003.9 0.0000 0.0000
12:44 13.2 8.3 72 104 1.4 3.1 1003.9 0.0000 0.0000
12:54 13.2 8.3 72 90 1.4 4.4 1003.8 0.0000 0.0000
13:05 13.3 8.4 72 78 2.2 4.4 1003.7 0.0000 0.0000
13:14 13.3 8.4 72 80 1.7 4.2 1003.7 0.0000 0.0000
13:24 13.5 8.6 72 98 1.9 5 1003.7 0.0000 0.0000
13:35 13.6 8 69 71 2.5 5.8 1003.7 0.0000 0.0000
13:45 13.4 7.8 69 96 2.5 5.3 1003.7 0.0000 0.0000
13:55 13.4 8 70 102 1.7 3.9 1003.6 0.0000 0.0000
14:04 14.3 8.9 70 114 2.2 4.7 1003.5 0.0000 0.0000
14:15 14.7 8.9 68 77 1.9 4.4 1003.5 0.0000 0.0000
14:25 14.9 8.8 67 103 1.7 3.3 1003.5 0.0000 0.0000
14:36 15 8.7 66 108 2.2 4.7 1003.4 0.0000 0.0000
14:46 15.1 8.8 66 90 1.9 4.7 1003.5 0.0000 0.0000
14:57 15 8.5 65 80 1.7 3.9 1003.5 0.0000 0.0000
15:07 14.8 8.3 65 103 1.7 4.7 1003.5 0.0000 0.0000
15:16 15.3 9 66 108 1.7 3.6 1003.6 0.0000 0.0000
15:26 15 8.5 65 96 1.4 4.2 1003.7 0.0000 0.0000
15:37 14.5 8 65 102 1.7 3.6 1003.8 0.0000 0.0000
15:47 14.1 7.6 65 81 1.4 2.8 1003.8 0.0000 0.0000
15:57 13.8 7.6 66 77 1.4 2.8 1003.8 0.0000 0.0000
16:07 13.8 7.8 67 76 1.7 3.9 1003.9 0.0000 0.0000
16:17 13.7 7.7 67 76 1.1 3.1 1003.9 0.0000 0.0000
16:27 13.5 7.7 68 58 1.4 2.8 1003.7 0.0000 0.0000
16:37 13.4 7.8 69 66 1.4 2.8 1003.7 0.0000 0.0000
16:48 13.3 7.7 69 60 1.4 3.1 1003.7 0.0000 0.0000
16:58 13.1 7.5 69 49 1.9 3.9 1003.7 0.0000 0.0000
17:07 13 7.7 70 53 1.7 3.3 1003.7 0.0000 0.0000
17:18 12.7 7.4 70 57 1.1 2.2 1003.9 0.0000 0.0000
17:28 12.5 7.4 71 49 1.4 3.3 1003.9 0.0000 0.0000
17:38 12.2 7.1 71 45 1.1 2.2 1003.9 0.0000 0.0000
17:48 11.8 6.9 72 50 1.7 2.8 1003.9 0.0000 0.0000
17:58 11.5 6.8 73 52 1.4 2.8 1004 0.0000 0.0000
18:08 11.3 6.8 74 48 1.9 3.1 1004.2 0.0000 0.0000
18:18 11.1 6.8 75 48 1.7 3.3 1004.3 0.0000 0.0000
18:28 10.9 6.6 75 47 1.7 2.8 1004.3 0.0000 0.0000
18:39 10.8 6.7 76 48 1.4 2.8 1004.6 0.0000 0.0000
18:48 10.5 6.5 76 48 1.7 3.1 1004.7 0.0000 0.0000
18:58 10.3 6.3 76 49 1.4 3.1 1004.7 0.0000 0.0000
19:09 10 6.2 77 47 1.1 2.2 1004.8 0.0000 0.0000
19:19 9.7 5.9 77 38 0.8 1.4 1004.8
19:29 9.1 5.3 77 31 1.1 2.2 1004.8
19:39 8.8 5.2 78 38 0.8 1.7 1004.8
19:49 8.4 5 79 41 0.8 1.7 1004.7
19:59 8.2 5 80 33 1.1 1.9 1004.8
20:09 8 4.8 80 30 1.4 2.2 1004.8
20:12 7.9 4.7 80 31 1.1 1.9 1004.8 0.0000 0.0000
20:22 7.8 4.7 81 45 1.1 1.7 1004.7 0.0000 0.0000
20:32 7.8 4.7 81 27 1.4 3.1 1004.7 0.0000 0.0000
20:43 7.8 4.9 82 30 1.1 2.2 1004.9 0.0000 0.0000
20:52 7.8 4.9 82 38 1.1 2.5 1004.9 0.0000 0.0000
21:02 7.8 4.9 82 34 1.4 3.3 1005 0.0000 0.0000
21:13 7.7 4.8 82 40 1.1 2.2 1005 0.0000 0.0000
21:23 7.6 4.7 82 37 1.1 3.1 1005 0.0000 0.0000
21:33 7.6 4.7 82 45 1.1 2.2 1005.1 0.0000 0.0000
21:43 7.5 4.8 83 40 0.8 1.9 1005.1 0.0000 0.0000
21:53 7.4 4.7 83 34 1.1 1.9 1005.2 0.0000 0.0000
22:03 7.3 4.6 83 38 1.1 2.2 1005.2 0.0000 0.0000
22:13 7.2 4.5 83 28 1.1 2.2 1005.2 0.0000 0.0000
22:23 7 4.3 83 35 0.6 1.4 1005.3 0.0000 0.0000
22:34 6.6 3.9 83 40 0.6 1.4 1005.3 0.0000 0.0000
22:43 6.4 3.7 83 43 0.8 1.4 1005.4 0.0000 0.0000
22:53 6.1 3.6 84 34 0.8 1.7 1005.4 0.0000 0.0000
23:04 6 3.5 84 36 0.8 1.4 1005.5 0.0000 0.0000
23:14 5.9 3.4 84 36 0.6 1.4 1005.5 0.0000 0.0000
23:24 5.8 3.3 84 42 0.6 1.4 1005.5 0.0000 0.0000
23:34 5.5 3 84 22 0.8 1.7 1005.5 0.0000 0.0000
23:44 5.2 2.7 84 42 0.6 1.4 1005.4 0.0000 0.0000
23:54 4.9 2.4 84 42 0.6 1.4 1005.5 0.0000

TAGESSTATISTIK

2024-03-03
TEMPERATUR
MITTEL
8.3
MAXIMUM
15.3
15:16
MINIMUM
1.1
07:01
LUFTDRUCK
MITTEL
1004.4
MAXIMUM
1005.5
23:04
MINIMUM
1003.4
14:36
TAUPUNKT
MITTEL
5.1
MAXIMUM
10.6
11:33
MINIMUM
-0.6
07:01
FEUCHTIGKEIT
MITTEL
81
MAXIMUM
90
08:42
MINIMUM
65
14:57
WINDSTÄRKE
MITTEL
1.1
MAXIMUM
2.5
13:35
WINDBÖE
MITTEL
2.3
MAXIMUM
5.8
13:35
WINDRICHTUNG
VORHERRSCHENDE
NO
58.7%
N
2.8
NO
58.7
O
32.2
SO
4.2
S
0.0
SW
0.0
W
0.0
NW
0.7
NIEDERSCHLAG
REGEN STUNDE
0.0
REGEN TAG
0.0
TEMPERATUR (°C)
MINIMUM
1.1
MAXIMUM
15.3
MITTEL
8.3
LUFTDRUCK (hpa)
MINIMUM
1003.4
MAXIMUM
1005.5
MITTEL
1004.4
MESSGERÄT